Ammansville, Texas
Current Conditions -  °F | °C
As of 8:15 PM on Friday 24 Oct 2014 (Local Time) from K3T5 Reporting Station
Clear Clear  
Wind Chill: 73°   Ceiling: Unl
Heat Index: 73°   Visibility: 10mi
Dew Point: 62°   Wind: 0mph
Humidity: 67%   Direction: NA
Pressure: 30.09"   Gusts: NA
Location:  29.8569°N, 96.9311°W
Report Text: K3T5 250115Z AUTO 00000KT 10SM CLR 23/17 A3009 RMK AO2 T02300165
Loading
Personal Weather Stations






























Interactive Weather Map
Tropical Storm Tracking
New forecast layout! Learn more

10-Day Weather Forecast

Advertisements
Track Severe Weather on mobile